Torm Garonne — OYMG2 — position and weather

sailwx.info

Track history (hours):
 
Tides and Currents Weather Stations Pressure Air Temp Water Temp Dewpoint Dewpoint Depression Visibility Wind Speed Wind Dir Waves Ship Positions

Torm Garonne

Last reported at 2017-Dec-15 12:28 UTC. Time now 2017-Dec-15 19:59 UTC.
Position N 52°09' E 003°35'.

Length 183 m; draft 7.2 m.

Type: Tanker. MMSI: 220567000.

Date/timePositionNaut miles runAvg speedWind from/ knotsBaromVisibWave heightAir tempDewpointWater temp
2017-Dec-15 12:28N 52°09' E 003°35'0 0.0
2017-Dec-15 11:55N 52°09' E 003°35'0 0.0
2017-Dec-15 11:28N 52°09' E 003°35'0 0.0
2017-Dec-15 10:58N 52°09' E 003°35'0 0.1
2017-Dec-15 10:28N 52°09' E 003°35'0 0.0
2017-Dec-15 09:52N 52°09' E 003°35'0 0.1
2017-Dec-15 09:28N 52°09' E 003°35'0 0.1
2017-Dec-15 08:22N 52°09' E 003°35'0 0.1
2017-Dec-15 07:49N 52°09' E 003°35'0 0.0
2017-Dec-15 07:19N 52°09' E 003°35'0 0.1
2017-Dec-15 05:34N 52°09' E 003°35'0 0.1
2017-Dec-15 05:28N 52°09' E 003°35'193 7.3
2017-Dec-14 03:07N 54°05' E 007°52'112.0
2017-Dec-14 03:00N 54°04' E 007°54'612.4
2017-Dec-14 02:30N 54°01' E 008°03'612.6
2017-Dec-14 02:00N 54°00' E 008°14'4 8.2
2017-Dec-14 01:30N 53°60' E 008°20'611.8
2017-Dec-14 01:00N 53°58' E 008°30'613.0
2017-Dec-14 00:30N 53°55' E 008°40'612.4
2017-Dec-14 00:00N 53°51' E 008°47'714.5
2017-Dec-13 23:30N 53°51' E 008°59'713.0
2017-Dec-13 23:00N 53°53' E 009°10'611.3
2017-Dec-13 22:30N 53°51' E 009°19'612.5
2017-Dec-13 22:00N 53°46' E 009°24'612.2
2017-Dec-13 21:30N 53°41' E 009°30'611.4
2017-Dec-13 21:00N 53°36' E 009°35'611.2
2017-Dec-13 20:30N 53°34' E 009°44'5 9.0
2017-Dec-13 20:00N 53°33' E 009°51'3 6.4
2017-Dec-13 19:31N 53°32' E 009°56'2 3.4
2017-Dec-13 18:59N 53°30' E 009°57'0 0.0
2017-Dec-11 19:33N 53°30' E 009°57'0 0.0
2017-Dec-11 19:30N 53°30' E 009°57'0 0.0
2017-Dec-11 19:00N 53°30' E 009°57'1 1.5
2017-Dec-11 18:31N 53°31' E 009°57'3 5.5
2017-Dec-11 18:00N 53°32' E 009°53'4 8.9
2017-Dec-11 17:30N 53°34' E 009°46'611.2
2017-Dec-11 17:00N 53°35' E 009°37'510.5
2017-Dec-11 16:30N 53°39' E 009°31'510.7
2017-Dec-11 16:01N 53°44' E 009°27'510.3
2017-Dec-11 15:30N 53°48' E 009°22'510.1
2017-Dec-11 15:00N 53°52' E 009°17'5 9.5
2017-Dec-11 14:30N 53°53' E 009°09'4 8.2
2017-Dec-11 14:01N 53°52' E 009°02'4 7.9
2017-Dec-11 13:30N 53°51' E 008°56'4 8.3
2017-Dec-11 13:01N 53°50' E 008°49'4 7.3
2017-Dec-11 12:31N 53°52' E 008°43'4 8.5
2017-Dec-11 12:01N 53°56' E 008°40'5 9.3
2017-Dec-11 11:30N 53°58' E 008°33'5 9.0
2017-Dec-11 11:00N 53°59' E 008°25'4 8.1
2017-Dec-11 10:30N 53°60' E 008°18'611.1
2017-Dec-11 10:00N 53°59' E 008°09'4 6.9
2017-Dec-11 09:30N 53°60' E 008°03'2 3.3
2017-Dec-11 09:00N 53°60' E 008°00'2 3.4
2017-Dec-11 08:30N 54°01' E 007°58'2 3.9
2017-Dec-11 08:00N 54°02' E 007°55'50 9.4
2017-Dec-11 02:41N 54°44' E 007°09'211.4
2017-Dec-11 02:30N 54°46' E 007°09'611.5
2017-Dec-11 02:00N 54°52' E 007°08'611.5
2017-Dec-11 01:30N 54°57' E 007°04'611.3
2017-Dec-11 01:00N 55°02' E 007°01'611.3
2017-Dec-11 00:30N 55°08' E 006°59'611.5
2017-Dec-11 00:00N 55°14' E 006°58'611.4
2017-Dec-10 23:30N 55°19' E 006°59'611.1
2017-Dec-10 23:00N 55°25' E 006°59'511.0
2017-Dec-10 22:30N 55°30' E 007°00'610.9
2017-Dec-10 22:00N 55°36' E 007°02'510.6
2017-Dec-10 21:30N 55°41' E 007°03'510.4
2017-Dec-10 21:00N 55°46' E 007°04'14210.0
2017-Dec-10 06:49N 57°46' E 009°23'310.4
2017-Dec-10 06:30N 57°46' E 009°29'510.6
2017-Dec-10 06:00N 57°46' E 009°39'610.9
2017-Dec-10 05:29N 57°47' E 009°49'611.1
2017-Dec-10 04:59N 57°47' E 009°60'510.8
2017-Dec-10 04:30N 57°48' E 010°09'510.4
2017-Dec-10 04:00N 57°48' E 010°19'5 9.9
2017-Dec-10 03:30N 57°49' E 010°28'5 9.7
2017-Dec-10 03:00N 57°49' E 010°38'5 9.2
2017-Dec-10 02:30N 57°49' E 010°46'511.0
2017-Dec-10 02:00N 57°43' E 010°48'4 8.3
2017-Dec-10 01:30N 57°40' E 010°53'713.2
2017-Dec-10 01:00N 57°36' E 011°03'713.2
2017-Dec-10 00:30N 57°32' E 011°13'713.0
2017-Dec-10 00:00N 57°29' E 011°23'612.8
2017-Dec-09 23:30N 57°23' E 011°29'612.9
2017-Dec-09 23:00N 57°17' E 011°33'713.1
2017-Dec-09 22:30N 57°11' E 011°37'713.2
2017-Dec-09 22:00N 57°05' E 011°41'10811.2
2017-Dec-09 12:22N 55°19' E 011°02'511.8
2017-Dec-09 11:59N 55°15' E 011°06'510.6
2017-Dec-09 11:30N 55°10' E 011°01'611.9
2017-Dec-09 11:00N 55°05' E 010°59'611.6
2017-Dec-09 10:30N 54°59' E 010°58'611.7
2017-Dec-09 10:00N 54°54' E 010°52'611.2
2017-Dec-09 09:30N 54°49' E 010°50'611.2
2017-Dec-09 09:00N 54°43' E 010°47'5 9.6
2017-Dec-09 08:30N 54°39' E 010°51'611.8
2017-Dec-09 08:00N 54°36' E 010°60'510.9
2017-Dec-09 07:30N 54°35' E 011°09'510.8
2017-Dec-09 07:00N 54°34' E 011°18'611.6
2017-Dec-09 06:30N 54°31' E 011°27'611.7
2017-Dec-09 06:00N 54°29' E 011°36'611.7
2017-Dec-09 05:30N 54°26' E 011°45'611.4
2017-Dec-09 05:00N 54°26' E 011°55'611.5
2017-Dec-09 04:30N 54°26' E 012°05'510.0
2017-Dec-09 04:00N 54°29' E 012°12'70 9.5
2017-Dec-08 20:42N 55°03' E 013°58'5 9.6
2017-Dec-08 20:11N 55°05' E 014°05'310.0
2017-Dec-08 19:54N 55°07' E 014°09'510.2
2017-Dec-08 19:27N 55°11' E 014°13'510.3
2017-Dec-08 18:56N 55°15' E 014°19'410.4
2017-Dec-08 18:30N 55°19' E 014°24'510.4
2017-Dec-08 17:59N 55°23' E 014°29'510.2
2017-Dec-08 17:30N 55°27' E 014°35'510.2
2017-Dec-08 16:59N 55°29' E 014°43'610.1
2017-Dec-08 16:22N 55°32' E 014°53'410.2
2017-Dec-08 15:57N 55°34' E 014°60'510.3
2017-Dec-08 15:25N 55°36' E 015°08'410.0
2017-Dec-08 15:00N 55°38' E 015°15'5 9.9
2017-Dec-08 14:30N 55°40' E 015°23'5 9.7
2017-Dec-08 14:00N 55°41' E 015°31'5 9.8
2017-Dec-08 13:30N 55°42' E 015°40'5 9.8
2017-Dec-08 13:00N 55°43' E 015°48'5 9.6
2017-Dec-08 12:30N 55°44' E 015°57'5 9.7
2017-Dec-08 12:00N 55°46' E 016°05'5 9.8
2017-Dec-08 11:30N 55°47' E 016°13'5 9.8
2017-Dec-08 11:00N 55°48' E 016°22'7 9.6
2017-Dec-08 10:19N 55°50' E 016°33'3 9.7
2017-Dec-08 10:00N 55°50' E 016°38'5 9.6
2017-Dec-08 09:30N 55°51' E 016°47'300 9.3
2017-Dec-07 01:15N 59°35' E 023°01'311.9
2017-Dec-07 01:00N 59°36' E 023°06'711.9
2017-Dec-07 00:24N 59°37' E 023°20'511.9
2017-Dec-07 00:00N 59°39' E 023°29'611.9
2017-Dec-06 23:30N 59°40' E 023°41'611.9
2017-Dec-06 23:00N 59°42' E 023°52'611.9
2017-Dec-06 22:29N 59°44' E 024°04'612.0
2017-Dec-06 21:56N 59°46' E 024°16'511.9
2017-Dec-06 21:30N 59°47' E 024°26'611.2
2017-Dec-06 21:00N 59°48' E 024°37'  
Track history (hours):
 
Tides and Currents Weather Stations Pressure Air Temp Water Temp Dewpoint Dewpoint Depression Visibility Wind Speed Wind Dir Waves Ship Positions

Torm Garonne

Last reported at 2017-Dec-15 12:28 UTC. Time now 2017-Dec-15 19:59 UTC.
Position N 52°09' E 003°35'.

Length 183 m; draft 7.2 m.

Type: Tanker. MMSI: 220567000.

Date/timePositionNaut miles runAvg speedWind from/ knotsBaromVisibWave heightAir tempDewpointWater temp
2017-Dec-15 12:28N 52°09' E 003°35'0 0.0
2017-Dec-15 11:55N 52°09' E 003°35'0 0.0
2017-Dec-15 11:28N 52°09' E 003°35'0 0.0
2017-Dec-15 10:58N 52°09' E 003°35'0 0.1
2017-Dec-15 10:28N 52°09' E 003°35'0 0.0
2017-Dec-15 09:52N 52°09' E 003°35'0 0.1
2017-Dec-15 09:28N 52°09' E 003°35'0 0.1
2017-Dec-15 08:22N 52°09' E 003°35'0 0.1
2017-Dec-15 07:49N 52°09' E 003°35'0 0.0
2017-Dec-15 07:19N 52°09' E 003°35'0 0.1
2017-Dec-15 05:34N 52°09' E 003°35'0 0.1
2017-Dec-15 05:28N 52°09' E 003°35'193 7.3
2017-Dec-14 03:07N 54°05' E 007°52'112.0
2017-Dec-14 03:00N 54°04' E 007°54'612.4
2017-Dec-14 02:30N 54°01' E 008°03'612.6
2017-Dec-14 02:00N 54°00' E 008°14'4 8.2
2017-Dec-14 01:30N 53°60' E 008°20'611.8
2017-Dec-14 01:00N 53°58' E 008°30'613.0
2017-Dec-14 00:30N 53°55' E 008°40'612.4
2017-Dec-14 00:00N 53°51' E 008°47'714.5
2017-Dec-13 23:30N 53°51' E 008°59'713.0
2017-Dec-13 23:00N 53°53' E 009°10'611.3
2017-Dec-13 22:30N 53°51' E 009°19'612.5
2017-Dec-13 22:00N 53°46' E 009°24'612.2
2017-Dec-13 21:30N 53°41' E 009°30'611.4
2017-Dec-13 21:00N 53°36' E 009°35'611.2
2017-Dec-13 20:30N 53°34' E 009°44'5 9.0
2017-Dec-13 20:00N 53°33' E 009°51'3 6.4
2017-Dec-13 19:31N 53°32' E 009°56'2 3.4
2017-Dec-13 18:59N 53°30' E 009°57'0 0.0
2017-Dec-11 19:33N 53°30' E 009°57'0 0.0
2017-Dec-11 19:30N 53°30' E 009°57'0 0.0
2017-Dec-11 19:00N 53°30' E 009°57'1 1.5
2017-Dec-11 18:31N 53°31' E 009°57'3 5.5
2017-Dec-11 18:00N 53°32' E 009°53'4 8.9
2017-Dec-11 17:30N 53°34' E 009°46'611.2
2017-Dec-11 17:00N 53°35' E 009°37'510.5
2017-Dec-11 16:30N 53°39' E 009°31'510.7
2017-Dec-11 16:01N 53°44' E 009°27'510.3
2017-Dec-11 15:30N 53°48' E 009°22'510.1
2017-Dec-11 15:00N 53°52' E 009°17'5 9.5
2017-Dec-11 14:30N 53°53' E 009°09'4 8.2
2017-Dec-11 14:01N 53°52' E 009°02'4 7.9
2017-Dec-11 13:30N 53°51' E 008°56'4 8.3
2017-Dec-11 13:01N 53°50' E 008°49'4 7.3
2017-Dec-11 12:31N 53°52' E 008°43'4 8.5
2017-Dec-11 12:01N 53°56' E 008°40'5 9.3
2017-Dec-11 11:30N 53°58' E 008°33'5 9.0
2017-Dec-11 11:00N 53°59' E 008°25'4 8.1
2017-Dec-11 10:30N 53°60' E 008°18'611.1
2017-Dec-11 10:00N 53°59' E 008°09'4 6.9
2017-Dec-11 09:30N 53°60' E 008°03'2 3.3
2017-Dec-11 09:00N 53°60' E 008°00'2 3.4
2017-Dec-11 08:30N 54°01' E 007°58'2 3.9
2017-Dec-11 08:00N 54°02' E 007°55'50 9.4
2017-Dec-11 02:41N 54°44' E 007°09'211.4
2017-Dec-11 02:30N 54°46' E 007°09'611.5
2017-Dec-11 02:00N 54°52' E 007°08'611.5
2017-Dec-11 01:30N 54°57' E 007°04'611.3
2017-Dec-11 01:00N 55°02' E 007°01'611.3
2017-Dec-11 00:30N 55°08' E 006°59'611.5
2017-Dec-11 00:00N 55°14' E 006°58'611.4
2017-Dec-10 23:30N 55°19' E 006°59'611.1
2017-Dec-10 23:00N 55°25' E 006°59'511.0
2017-Dec-10 22:30N 55°30' E 007°00'610.9
2017-Dec-10 22:00N 55°36' E 007°02'510.6
2017-Dec-10 21:30N 55°41' E 007°03'510.4
2017-Dec-10 21:00N 55°46' E 007°04'14210.0
2017-Dec-10 06:49N 57°46' E 009°23'310.4
2017-Dec-10 06:30N 57°46' E 009°29'510.6
2017-Dec-10 06:00N 57°46' E 009°39'610.9
2017-Dec-10 05:29N 57°47' E 009°49'611.1
2017-Dec-10 04:59N 57°47' E 009°60'510.8
2017-Dec-10 04:30N 57°48' E 010°09'510.4
2017-Dec-10 04:00N 57°48' E 010°19'5 9.9
2017-Dec-10 03:30N 57°49' E 010°28'5 9.7
2017-Dec-10 03:00N 57°49' E 010°38'5 9.2
2017-Dec-10 02:30N 57°49' E 010°46'511.0
2017-Dec-10 02:00N 57°43' E 010°48'4 8.3
2017-Dec-10 01:30N 57°40' E 010°53'713.2
2017-Dec-10 01:00N 57°36' E 011°03'713.2
2017-Dec-10 00:30N 57°32' E 011°13'713.0
2017-Dec-10 00:00N 57°29' E 011°23'612.8
2017-Dec-09 23:30N 57°23' E 011°29'612.9
2017-Dec-09 23:00N 57°17' E 011°33'713.1
2017-Dec-09 22:30N 57°11' E 011°37'713.2
2017-Dec-09 22:00N 57°05' E 011°41'10811.2
2017-Dec-09 12:22N 55°19' E 011°02'511.8
2017-Dec-09 11:59N 55°15' E 011°06'510.6
2017-Dec-09 11:30N 55°10' E 011°01'611.9
2017-Dec-09 11:00N 55°05' E 010°59'611.6
2017-Dec-09 10:30N 54°59' E 010°58'611.7
2017-Dec-09 10:00N 54°54' E 010°52'611.2
2017-Dec-09 09:30N 54°49' E 010°50'611.2
2017-Dec-09 09:00N 54°43' E 010°47'5 9.6
2017-Dec-09 08:30N 54°39' E 010°51'611.8
2017-Dec-09 08:00N 54°36' E 010°60'510.9
2017-Dec-09 07:30N 54°35' E 011°09'510.8
2017-Dec-09 07:00N 54°34' E 011°18'611.6
2017-Dec-09 06:30N 54°31' E 011°27'611.7
2017-Dec-09 06:00N 54°29' E 011°36'611.7
2017-Dec-09 05:30N 54°26' E 011°45'611.4
2017-Dec-09 05:00N 54°26' E 011°55'611.5
2017-Dec-09 04:30N 54°26' E 012°05'510.0
2017-Dec-09 04:00N 54°29' E 012°12'70 9.5
2017-Dec-08 20:42N 55°03' E 013°58'5 9.6
2017-Dec-08 20:11N 55°05' E 014°05'310.0
2017-Dec-08 19:54N 55°07' E 014°09'510.2
2017-Dec-08 19:27N 55°11' E 014°13'510.3
2017-Dec-08 18:56N 55°15' E 014°19'410.4
2017-Dec-08 18:30N 55°19' E 014°24'510.4
2017-Dec-08 17:59N 55°23' E 014°29'510.2
2017-Dec-08 17:30N 55°27' E 014°35'510.2
2017-Dec-08 16:59N 55°29' E 014°43'610.1
2017-Dec-08 16:22N 55°32' E 014°53'410.2
2017-Dec-08 15:57N 55°34' E 014°60'510.3
2017-Dec-08 15:25N 55°36' E 015°08'410.0
2017-Dec-08 15:00N 55°38' E 015°15'5 9.9
2017-Dec-08 14:30N 55°40' E 015°23'5 9.7
2017-Dec-08 14:00N 55°41' E 015°31'5 9.8
2017-Dec-08 13:30N 55°42' E 015°40'5 9.8
2017-Dec-08 13:00N 55°43' E 015°48'5 9.6
2017-Dec-08 12:30N 55°44' E 015°57'5 9.7
2017-Dec-08 12:00N 55°46' E 016°05'5 9.8
2017-Dec-08 11:30N 55°47' E 016°13'5 9.8
2017-Dec-08 11:00N 55°48' E 016°22'7 9.6
2017-Dec-08 10:19N 55°50' E 016°33'3 9.7
2017-Dec-08 10:00N 55°50' E 016°38'5 9.6
2017-Dec-08 09:30N 55°51' E 016°47'300 9.3
2017-Dec-07 01:15N 59°35' E 023°01'311.9
2017-Dec-07 01:00N 59°36' E 023°06'711.9
2017-Dec-07 00:24N 59°37' E 023°20'511.9
2017-Dec-07 00:00N 59°39' E 023°29'611.9
2017-Dec-06 23:30N 59°40' E 023°41'611.9
2017-Dec-06 23:00N 59°42' E 023°52'611.9
2017-Dec-06 22:29N 59°44' E 024°04'612.0
2017-Dec-06 21:56N 59°46' E 024°16'511.9
2017-Dec-06 21:30N 59°47' E 024°26'611.2
2017-Dec-06 21:00N 59°48' E 024°37'  

Dump ship's entire track history